createdAt,value
2023-02-21T00:02:15.471Z,37.40
2023-02-21T00:05:00.835Z,44.60
2023-02-21T00:07:47.220Z,42.60
2023-02-21T00:10:35.163Z,46.08
2023-02-21T00:13:20.562Z,43.10
2023-02-21T00:16:06.041Z,43.63
2023-02-21T00:18:53.244Z,37.83
2023-02-21T00:21:38.600Z,41.42
2023-02-21T00:24:24.842Z,46.42
2023-02-21T00:27:10.132Z,42.42
2023-02-21T00:29:55.880Z,40.05
2023-02-21T00:32:41.284Z,35.88
2023-02-21T00:35:26.600Z,40.28
2023-02-21T00:38:12.468Z,39.50
2023-02-21T00:40:57.940Z,38.53
2023-02-21T00:43:53.913Z,39.40
2023-02-21T00:46:41.382Z,40.17
2023-02-21T00:49:27.120Z,39.08
2023-02-21T00:52:12.858Z,39.45
2023-02-21T00:54:58.205Z,40.53
2023-02-21T00:57:43.409Z,39.03
2023-02-21T01:00:37.590Z,34.10
2023-02-21T01:03:23.410Z,35.38
2023-02-21T01:06:09.634Z,40.33
2023-02-21T01:08:54.888Z,41.15
2023-02-21T01:11:41.680Z,35.10
2023-02-21T01:14:28.488Z,42.83
2023-02-21T01:17:14.153Z,41.50
2023-02-21T01:20:00.976Z,39.17
2023-02-21T01:22:47.449Z,34.83
2023-02-21T01:25:33.734Z,39.65
2023-02-21T01:28:19.213Z,36.88
2023-02-21T01:31:04.607Z,35.35
2023-02-21T01:33:55.428Z,39.70
2023-02-21T01:36:40.770Z,33.72
2023-02-21T01:39:26.811Z,45.70
2023-02-21T01:42:12.330Z,34.05
2023-02-21T01:45:01.331Z,36.67
2023-02-21T01:47:47.221Z,41.50
2023-02-21T01:50:46.459Z,34.92
2023-02-21T01:53:45.945Z,35.33
2023-02-21T01:56:32.456Z,39.63
2023-02-21T01:59:20.323Z,40.70
2023-02-21T02:02:20.825Z,41.72
2023-02-21T02:05:08.121Z,42.47
2023-02-21T02:07:54.124Z,36.13
2023-02-21T02:10:39.468Z,37.40
2023-02-21T02:13:53.781Z,39.92
2023-02-21T02:16:41.555Z,46.67
2023-02-21T02:19:27.889Z,39.92
2023-02-21T02:22:18.842Z,36.90
2023-02-21T02:24:54.817Z,43.92
2023-02-21T02:27:45.881Z,49.42
2023-02-21T02:30:15.655Z,47.83
2023-02-21T02:33:17.474Z,40.38
2023-02-21T02:35:50.477Z,37.08
2023-02-21T02:38:57.670Z,39.17
2023-02-21T02:41:39.881Z,40.28
2023-02-21T02:44:20.845Z,41.50
2023-02-21T02:46:50.048Z,43.20
2023-02-21T02:49:21.584Z,37.83
2023-02-21T02:51:49.132Z,42.72
2023-02-21T02:54:15.977Z,37.78
2023-02-21T02:56:43.029Z,42.10
2023-02-21T02:59:23.191Z,41.55
2023-02-21T03:01:50.270Z,37.28
2023-02-21T03:04:41.471Z,36.25
2023-02-21T03:07:50.425Z,35.15
2023-02-21T03:10:54.842Z,39.63
2023-02-21T03:13:24.240Z,35.78
2023-02-21T03:16:04.248Z,33.22
2023-02-21T03:18:41.923Z,44.40
2023-02-21T03:21:21.981Z,39.80
2023-02-21T03:23:51.661Z,34.15
2023-02-21T03:26:19.323Z,37.85
2023-02-21T03:28:48.037Z,38.80
2023-02-21T03:31:20.291Z,32.42
2023-02-21T03:33:47.128Z,37.40
2023-02-21T03:36:15.368Z,33.72
2023-02-21T03:38:42.220Z,38.70
2023-02-21T03:41:12.051Z,42.33
2023-02-21T03:43:39.074Z,39.72
2023-02-21T03:46:05.918Z,39.97
2023-02-21T03:48:33.036Z,37.50
2023-02-21T03:51:00.329Z,44.90
2023-02-21T03:53:27.153Z,44.17
2023-02-21T03:55:54.034Z,42.15
2023-02-21T03:58:20.857Z,39.70
2023-02-21T04:00:48.020Z,42.47
2023-02-21T04:03:14.820Z,42.17
2023-02-21T04:05:41.779Z,38.95
2023-02-21T04:08:08.662Z,36.45
2023-02-21T04:10:38.217Z,39.78
2023-02-21T04:13:14.016Z,37.17
2023-02-21T04:15:40.895Z,39.65
2023-02-21T04:18:07.689Z,41.80
2023-02-21T04:20:34.575Z,36.00
2023-02-21T04:23:03.619Z,42.33
2023-02-21T04:25:31.079Z,40.97
2023-02-21T04:27:57.978Z,43.83
2023-02-21T04:30:24.899Z,37.90
2023-02-21T04:32:51.749Z,38.40
2023-02-21T04:35:18.578Z,33.58
2023-02-21T04:37:45.799Z,42.78
2023-02-21T04:40:12.854Z,40.92
2023-02-21T04:42:39.894Z,41.15
2023-02-21T04:45:07.263Z,37.25
2023-02-21T04:47:34.058Z,35.90
2023-02-21T04:50:00.953Z,43.45
2023-02-21T04:52:27.831Z,38.75
2023-02-21T04:54:54.700Z,37.40
2023-02-21T04:57:21.893Z,39.00
2023-02-21T04:59:48.724Z,42.72
2023-02-21T05:02:18.212Z,44.90
2023-02-21T05:04:45.069Z,49.70
2023-02-21T05:07:11.908Z,42.13
2023-02-21T05:09:38.695Z,48.25
2023-02-21T05:12:11.317Z,40.85
2023-02-21T05:14:41.986Z,40.35
2023-02-21T05:17:09.753Z,37.38
2023-02-21T05:19:36.777Z,38.25
2023-02-21T05:22:06.621Z,42.15
2023-02-21T05:24:34.454Z,41.90
2023-02-21T05:27:01.398Z,43.13
2023-02-21T05:29:28.339Z,39.65
2023-02-21T05:31:55.325Z,46.30
2023-02-21T05:34:22.157Z,45.13
2023-02-21T05:36:49.038Z,50.38
2023-02-21T05:39:16.085Z,45.00
2023-02-21T05:41:50.344Z,47.22
2023-02-21T05:44:18.191Z,41.75
2023-02-21T05:46:46.132Z,45.17
2023-02-21T05:49:13.390Z,39.58
2023-02-21T05:51:43.145Z,45.00
2023-02-21T05:54:17.440Z,41.25
2023-02-21T05:56:45.990Z,39.58
2023-02-21T05:59:14.157Z,44.08
2023-02-21T06:01:41.208Z,42.92
2023-02-21T06:04:08.331Z,43.10
2023-02-21T06:06:35.524Z,47.15
2023-02-21T06:09:03.138Z,51.30
2023-02-21T06:11:37.059Z,38.28
2023-02-21T06:14:06.330Z,43.08
2023-02-21T06:16:37.897Z,39.88
2023-02-21T06:19:06.936Z,35.35
2023-02-21T06:21:35.717Z,42.72
2023-02-21T06:24:03.423Z,45.53
2023-02-21T06:26:30.252Z,45.22
2023-02-21T06:28:57.070Z,43.30
2023-02-21T06:31:24.315Z,39.80
2023-02-21T06:33:52.142Z,40.78
2023-02-21T06:36:22.051Z,49.63
2023-02-21T06:38:53.466Z,41.40
2023-02-21T06:41:25.818Z,49.83
2023-02-21T06:43:54.213Z,43.80
2023-02-21T06:46:23.215Z,48.10
2023-02-21T06:48:50.492Z,43.78
2023-02-21T06:51:18.536Z,44.08
2023-02-21T06:53:49.105Z,49.33
2023-02-21T06:56:16.263Z,45.35
2023-02-21T06:58:43.228Z,43.95
2023-02-21T07:01:10.228Z,45.80
2023-02-21T07:03:40.813Z,48.13
2023-02-21T07:06:07.684Z,46.20
2023-02-21T07:08:34.592Z,46.92
2023-02-21T07:11:01.548Z,43.75
2023-02-21T07:13:28.513Z,47.65
2023-02-21T07:15:55.464Z,43.58
2023-02-21T07:18:22.442Z,42.85
2023-02-21T07:20:49.690Z,40.20
2023-02-21T07:23:16.594Z,41.08
2023-02-21T07:25:43.470Z,47.92
2023-02-21T07:28:11.727Z,42.63
2023-02-21T07:30:38.798Z,41.13
2023-02-21T07:33:05.641Z,47.70
2023-02-21T07:35:32.725Z,47.58
2023-02-21T07:37:59.542Z,47.60
2023-02-21T07:40:26.525Z,46.17
2023-02-21T07:42:53.508Z,45.33
2023-02-21T07:45:20.299Z,50.80
2023-02-21T07:47:48.233Z,50.90
2023-02-21T07:50:16.284Z,53.03
2023-02-21T07:52:43.129Z,46.78
2023-02-21T07:55:12.177Z,49.10
2023-02-21T07:57:39.263Z,46.83
2023-02-21T08:00:06.933Z,48.67
2023-02-21T08:02:33.798Z,44.90
2023-02-21T08:05:00.652Z,52.03
2023-02-21T08:07:27.669Z,44.33
2023-02-21T08:09:54.785Z,54.22
2023-02-21T08:12:21.570Z,55.25
2023-02-21T08:14:48.451Z,48.88
2023-02-21T08:17:15.401Z,58.20
2023-02-21T08:19:42.472Z,62.97
2023-02-21T08:22:09.316Z,51.58
2023-02-21T08:24:36.355Z,55.10
2023-02-21T08:27:03.270Z,49.35
2023-02-21T08:29:30.104Z,55.33
2023-02-21T08:31:58.354Z,60.08
2023-02-21T08:34:25.264Z,55.55
2023-02-21T08:36:52.049Z,51.83
2023-02-21T08:39:18.889Z,54.53
2023-02-21T08:41:48.463Z,52.53
2023-02-21T08:44:17.223Z,58.40
2023-02-21T08:46:44.475Z,55.70
2023-02-21T08:49:11.471Z,53.20
2023-02-21T08:51:38.516Z,56.92
2023-02-21T08:54:06.102Z,60.35
2023-02-21T08:56:33.382Z,53.50
2023-02-21T08:59:00.705Z,55.95
2023-02-21T09:01:33.789Z,58.88
2023-02-21T09:04:01.341Z,52.08
2023-02-21T09:06:28.626Z,58.85
2023-02-21T09:08:55.736Z,52.25
2023-02-21T09:11:22.754Z,53.55
2023-02-21T09:13:49.688Z,51.97
2023-02-21T09:16:16.548Z,54.92
2023-02-21T09:18:43.410Z,55.80
2023-02-21T09:21:10.205Z,58.28
2023-02-21T09:23:37.055Z,56.08
2023-02-21T09:26:03.968Z,54.22
2023-02-21T09:28:31.634Z,57.83
2023-02-21T09:30:58.579Z,50.85
2023-02-21T09:33:25.733Z,53.95
2023-02-21T09:35:54.035Z,57.30
2023-02-21T09:38:21.167Z,58.10
2023-02-21T09:41:00.629Z,60.33
2023-02-21T09:43:36.606Z,68.40
2023-02-21T09:46:14.029Z,62.95
2023-02-21T09:48:43.778Z,56.08
2023-02-21T09:51:14.438Z,57.15
2023-02-21T09:53:46.300Z,65.75
2023-02-21T09:56:35.443Z,60.25
2023-02-21T09:59:02.633Z,60.65
2023-02-21T10:01:53.335Z,55.83
2023-02-21T10:04:38.306Z,55.95
2023-02-21T10:07:14.157Z,54.65
2023-02-21T10:09:54.709Z,61.33
2023-02-21T10:12:50.539Z,56.67
2023-02-21T10:15:26.122Z,52.85
2023-02-21T10:18:05.762Z,54.25
2023-02-21T10:20:51.329Z,54.20
2023-02-21T10:23:36.553Z,60.40
2023-02-21T10:26:10.916Z,58.78
2023-02-21T10:28:39.490Z,59.88
2023-02-21T10:31:16.475Z,55.45
2023-02-21T10:33:43.851Z,62.10
2023-02-21T10:36:19.839Z,52.15
2023-02-21T10:38:56.888Z,62.78
2023-02-21T10:41:25.553Z,60.20
2023-02-21T10:43:59.974Z,57.67
2023-02-21T10:47:01.809Z,58.30
2023-02-21T10:49:40.930Z,57.15
2023-02-21T10:52:21.225Z,49.47
2023-02-21T10:55:01.855Z,58.78
2023-02-21T10:57:33.746Z,58.45
2023-02-21T11:00:10.029Z,62.75
2023-02-21T11:02:44.679Z,52.92
2023-02-21T11:05:17.769Z,63.95
2023-02-21T11:08:08.962Z,59.65
2023-02-21T11:10:42.261Z,56.80
2023-02-21T11:13:17.016Z,59.22
2023-02-21T11:15:45.518Z,57.30
2023-02-21T11:18:19.015Z,53.35
2023-02-21T11:20:47.364Z,56.55
2023-02-21T11:23:32.270Z,61.53
2023-02-21T11:26:07.914Z,59.05
2023-02-21T11:28:40.450Z,59.75
2023-02-21T11:31:18.517Z,54.50
2023-02-21T11:33:55.331Z,63.42
2023-02-21T11:36:37.464Z,61.35
2023-02-21T11:39:04.549Z,65.07
2023-02-21T11:41:37.885Z,58.15
2023-02-21T11:44:23.065Z,56.45
2023-02-21T11:46:55.313Z,64.30
2023-02-21T11:49:37.472Z,64.87
2023-02-21T11:52:12.983Z,63.03
2023-02-21T11:54:40.601Z,60.20
2023-02-21T11:57:14.383Z,55.45
2023-02-21T12:00:08.720Z,56.22
2023-02-21T12:02:57.298Z,51.63
2023-02-21T12:05:54.873Z,60.22
2023-02-21T12:08:51.695Z,50.95
2023-02-21T12:11:18.637Z,53.65
2023-02-21T12:14:24.503Z,55.45
2023-02-21T12:16:56.859Z,50.70
2023-02-21T12:19:58.122Z,56.78
2023-02-21T12:23:07.585Z,49.33
2023-02-21T12:26:07.059Z,47.63
2023-02-21T12:28:48.728Z,44.17
2023-02-21T12:31:44.872Z,44.50
2023-02-21T12:34:38.911Z,51.30
2023-02-21T12:37:33.439Z,47.25
2023-02-21T12:40:37.385Z,52.08
2023-02-21T12:45:55.002Z,47.70
2023-02-21T12:48:57.176Z,45.92
2023-02-21T12:51:32.199Z,45.83
2023-02-21T12:54:24.926Z,49.83
2023-02-21T12:57:01.755Z,51.73
2023-02-21T12:59:46.112Z,49.97
2023-02-21T13:02:27.444Z,55.40
2023-02-21T13:05:07.602Z,53.15
2023-02-21T13:07:45.473Z,51.78
2023-02-21T13:10:27.904Z,55.17
2023-02-21T13:13:00.955Z,55.00
2023-02-21T13:15:30.453Z,57.13
2023-02-21T13:18:08.604Z,55.60
2023-02-21T13:20:42.583Z,61.05
2023-02-21T13:23:11.460Z,58.97
2023-02-21T13:26:23.810Z,63.50
2023-02-21T13:28:58.809Z,58.05
2023-02-21T13:31:39.411Z,60.45
2023-02-21T13:34:09.720Z,55.33
2023-02-21T13:36:39.830Z,56.35
2023-02-21T13:39:09.817Z,52.38
2023-02-21T13:41:44.968Z,51.72
2023-02-21T13:44:19.033Z,57.58
2023-02-21T13:46:45.965Z,56.92
2023-02-21T13:49:42.669Z,58.50
2023-02-21T13:52:24.396Z,53.03
2023-02-21T13:55:17.800Z,57.47
2023-02-21T13:57:58.066Z,54.53
2023-02-21T14:00:24.841Z,51.85
2023-02-21T14:02:57.661Z,52.72
2023-02-21T14:05:25.100Z,54.45
2023-02-21T14:08:07.739Z,56.60
2023-02-21T14:10:45.710Z,50.35
2023-02-21T14:13:56.101Z,55.50
2023-02-21T14:16:34.692Z,51.30
2023-02-21T14:19:11.266Z,54.33
2023-02-21T14:21:51.383Z,56.75
2023-02-21T14:24:27.863Z,55.90
2023-02-21T14:29:45.009Z,53.80
2023-02-21T14:32:11.912Z,55.70
2023-02-21T14:34:48.357Z,59.95
2023-02-21T14:37:35.462Z,57.42
2023-02-21T14:40:11.476Z,53.83
2023-02-21T14:43:19.754Z,59.22
2023-02-21T14:46:16.454Z,61.85
2023-02-21T14:48:52.542Z,57.35
2023-02-21T14:51:31.552Z,58.97
2023-02-21T14:54:26.352Z,62.38
2023-02-21T14:57:19.824Z,62.45
2023-02-21T14:59:51.658Z,60.42
2023-02-21T15:02:46.920Z,68.07
2023-02-21T15:05:31.616Z,60.72
2023-02-21T15:08:18.857Z,62.45
2023-02-21T15:10:48.176Z,63.05
2023-02-21T15:13:31.754Z,63.97
2023-02-21T15:16:00.406Z,64.55
2023-02-21T15:18:30.547Z,68.45
2023-02-21T15:21:05.192Z,63.47
2023-02-21T15:23:33.349Z,58.00
2023-02-21T15:26:16.135Z,63.50
2023-02-21T15:28:43.037Z,60.85
2023-02-21T15:31:11.622Z,62.20
2023-02-21T15:33:41.451Z,69.28
2023-02-21T15:36:19.366Z,71.07
2023-02-21T15:39:03.140Z,69.93
2023-02-21T15:41:34.958Z,63.63
2023-02-21T15:44:11.177Z,74.38
2023-02-21T15:46:46.268Z,73.57
2023-02-21T15:49:30.329Z,66.90
2023-02-21T15:51:57.557Z,68.45
2023-02-21T15:54:28.656Z,72.45
2023-02-21T15:57:11.656Z,72.70
2023-02-21T15:59:41.949Z,64.72
2023-02-21T16:02:14.679Z,75.63
2023-02-21T16:04:47.655Z,77.15
2023-02-21T16:07:22.345Z,81.25
2023-02-21T16:09:57.271Z,88.55
2023-02-21T16:12:37.907Z,85.68
2023-02-21T16:15:32.979Z,98.78
2023-02-21T16:18:03.543Z,87.50
2023-02-21T16:20:36.256Z,82.28
2023-02-21T16:23:35.652Z,85.82
2023-02-21T16:26:09.322Z,85.35
2023-02-21T16:28:37.996Z,81.03
2023-02-21T16:31:08.048Z,85.47
2023-02-21T16:33:35.731Z,80.63
2023-02-21T16:36:10.327Z,91.85
2023-02-21T16:38:37.469Z,95.03
2023-02-21T16:41:04.521Z,88.38
2023-02-21T16:43:31.429Z,87.85
2023-02-21T16:45:59.010Z,94.07
2023-02-21T16:48:33.199Z,88.10
2023-02-21T16:51:18.172Z,90.20
2023-02-21T16:53:46.397Z,94.45
2023-02-21T16:56:15.260Z,90.47
2023-02-21T16:58:46.293Z,83.47
2023-02-21T17:01:25.281Z,89.40
2023-02-21T17:03:53.904Z,91.25
2023-02-21T17:06:23.669Z,95.35
2023-02-21T17:08:51.240Z,88.20
2023-02-21T17:11:18.468Z,95.22
2023-02-21T17:13:45.475Z,92.10
2023-02-21T17:16:12.391Z,77.55
2023-02-21T17:18:39.344Z,84.25
2023-02-21T17:21:06.310Z,87.20
2023-02-21T17:23:33.178Z,93.30
2023-02-21T17:26:08.060Z,90.40
2023-02-21T17:28:37.548Z,84.18
2023-02-21T17:31:04.651Z,104.13
2023-02-21T17:33:31.990Z,89.93
2023-02-21T17:35:58.992Z,94.63
2023-02-21T17:38:25.841Z,95.15
2023-02-21T17:40:53.612Z,89.68
2023-02-21T17:43:21.070Z,89.75
2023-02-21T17:45:48.123Z,95.40
2023-02-21T17:48:15.077Z,82.97
2023-02-21T17:50:42.030Z,85.78
2023-02-21T17:53:08.853Z,82.60
2023-02-21T17:55:35.769Z,89.38
2023-02-21T17:58:02.705Z,88.10
2023-02-21T18:00:33.506Z,91.88
2023-02-21T18:03:04.005Z,86.85
2023-02-21T18:05:31.752Z,83.88
2023-02-21T18:07:59.358Z,81.65
2023-02-21T18:10:27.316Z,80.28
2023-02-21T18:12:55.396Z,79.88
2023-02-21T18:15:29.784Z,80.38
2023-02-21T18:17:58.515Z,77.43
2023-02-21T18:20:25.376Z,80.68
2023-02-21T18:22:52.268Z,82.78
2023-02-21T18:25:21.518Z,71.88
2023-02-21T18:27:49.218Z,73.88
2023-02-21T18:30:17.595Z,71.85
2023-02-21T18:32:45.973Z,82.95
2023-02-21T18:35:14.253Z,76.70
2023-02-21T18:37:41.855Z,85.22
2023-02-21T18:40:10.182Z,77.80
2023-02-21T18:42:37.314Z,87.60
2023-02-21T18:45:04.412Z,75.47
2023-02-21T18:47:41.786Z,84.88
2023-02-21T18:50:09.367Z,77.43
2023-02-21T18:52:36.278Z,74.15
2023-02-21T18:55:04.072Z,68.35
2023-02-21T18:57:31.609Z,77.22
2023-02-21T18:59:58.762Z,76.60
2023-02-21T19:02:25.744Z,75.80
2023-02-21T19:04:52.718Z,75.53
2023-02-21T19:07:19.671Z,76.75
2023-02-21T19:09:48.159Z,71.65
2023-02-21T19:12:15.158Z,78.65
2023-02-21T19:14:42.287Z,74.07
2023-02-21T19:17:09.448Z,75.25
2023-02-21T19:19:37.310Z,71.53
2023-02-21T19:22:05.173Z,64.88
2023-02-21T19:24:32.133Z,73.22
2023-02-21T19:26:59.425Z,69.15
2023-02-21T19:29:26.481Z,63.58
2023-02-21T19:31:54.166Z,69.35
2023-02-21T19:34:21.223Z,68.93
2023-02-21T19:36:51.095Z,66.43
2023-02-21T19:39:18.404Z,68.38
2023-02-21T19:41:45.932Z,76.10
2023-02-21T19:44:14.174Z,75.13
2023-02-21T19:46:41.062Z,78.22
2023-02-21T19:49:14.629Z,66.88
2023-02-21T19:51:41.666Z,84.20
2023-02-21T19:54:08.519Z,72.68
2023-02-21T19:56:35.509Z,76.22
2023-02-21T19:59:02.660Z,76.00
2023-02-21T20:01:31.117Z,81.47
2023-02-21T20:03:58.394Z,74.70
2023-02-21T20:06:27.902Z,84.13
2023-02-21T20:08:57.576Z,82.53
2023-02-21T20:11:24.737Z,77.20
2023-02-21T20:13:51.599Z,86.63
2023-02-21T20:16:20.437Z,83.50
2023-02-21T20:18:48.434Z,79.85
2023-02-21T20:21:30.641Z,73.22
2023-02-21T20:24:01.303Z,78.85
2023-02-21T20:26:29.457Z,76.22
2023-02-21T20:28:56.962Z,71.97
2023-02-21T20:31:28.375Z,83.28
2023-02-21T20:33:56.603Z,84.40
2023-02-21T20:36:33.373Z,77.88
2023-02-21T20:39:01.337Z,79.07
2023-02-21T20:41:34.505Z,81.93
2023-02-21T20:46:29.209Z,86.30
2023-02-21T20:48:58.876Z,79.60
2023-02-21T20:51:30.754Z,85.70
2023-02-21T20:54:00.222Z,83.75
2023-02-21T20:56:39.613Z,95.53
2023-02-21T20:59:09.993Z,82.68
2023-02-21T21:01:36.891Z,102.45
2023-02-21T21:04:08.080Z,92.45
2023-02-21T21:06:36.646Z,97.63
2023-02-21T21:09:03.694Z,77.00
2023-02-21T21:11:31.863Z,89.53
2023-02-21T21:13:59.005Z,74.15
2023-02-21T21:16:25.958Z,90.50
2023-02-21T21:18:52.799Z,82.70
2023-02-21T21:21:20.799Z,74.63
2023-02-21T21:23:48.771Z,70.22
2023-02-21T21:26:16.723Z,73.28
2023-02-21T21:28:44.095Z,72.15
2023-02-21T21:31:11.006Z,58.00
2023-02-21T21:33:37.846Z,64.10
2023-02-21T21:36:09.028Z,59.35
2023-02-21T21:38:40.610Z,60.80
2023-02-21T21:41:13.675Z,59.20
2023-02-21T21:46:08.953Z,55.63
2023-02-21T21:48:35.738Z,50.95
2023-02-21T21:51:03.622Z,56.17
2023-02-21T21:53:30.678Z,55.05
2023-02-21T21:56:04.509Z,52.10
2023-02-21T21:58:33.771Z,63.63
2023-02-21T22:01:01.961Z,54.78
2023-02-21T22:03:29.114Z,63.58
2023-02-21T22:06:00.573Z,55.05
2023-02-21T22:08:28.697Z,58.05
2023-02-21T22:10:55.569Z,56.10
2023-02-21T22:13:22.483Z,55.45
2023-02-21T22:15:50.000Z,56.08
2023-02-21T22:18:19.009Z,44.80
2023-02-21T22:20:49.728Z,47.50
2023-02-21T22:23:21.237Z,44.67
2023-02-21T22:25:48.856Z,48.97
2023-02-21T22:28:16.348Z,49.20
2023-02-21T22:30:43.173Z,48.17
2023-02-21T22:33:13.660Z,49.22
2023-02-21T22:35:41.445Z,50.28
2023-02-21T22:38:14.377Z,52.60
2023-02-21T22:40:42.365Z,46.67
2023-02-21T22:43:10.250Z,51.45
2023-02-21T22:45:37.857Z,57.22
2023-02-21T22:48:07.188Z,60.55
2023-02-21T22:50:37.111Z,54.42
2023-02-21T22:53:09.294Z,53.00
2023-02-21T22:55:37.442Z,66.63
2023-02-21T22:58:06.815Z,71.70
2023-02-21T23:00:35.349Z,59.45
2023-02-21T23:03:13.336Z,59.45
2023-02-21T23:05:49.548Z,61.28
2023-02-21T23:08:19.262Z,62.17
2023-02-21T23:10:47.338Z,51.88
2023-02-21T23:13:17.495Z,55.15
2023-02-21T23:15:45.706Z,57.35
2023-02-21T23:18:20.458Z,58.35
2023-02-21T23:20:55.742Z,55.92
2023-02-21T23:23:28.796Z,71.13
2023-02-21T23:26:00.403Z,58.42
2023-02-21T23:28:28.928Z,57.80
2023-02-21T23:30:57.920Z,61.10
2023-02-21T23:33:27.700Z,58.85
2023-02-21T23:35:56.094Z,56.50
2023-02-21T23:38:24.180Z,64.93
2023-02-21T23:40:56.515Z,61.58
2023-02-21T23:43:35.730Z,65.22
2023-02-21T23:46:06.537Z,67.85
2023-02-21T23:48:33.663Z,69.15
2023-02-21T23:51:00.601Z,65.90
2023-02-21T23:53:29.438Z,72.18
2023-02-21T23:55:59.618Z,68.32
2023-02-21T23:58:29.351Z,70.75
